sensor_id;sensor_type;location;lat;lon;timestamp;P1;durP1;ratioP1;P2;durP2;ratioP2
44766;SDS011;30487;48.716;9.272;2023-07-24T00:00:38;10.75;;;5.80;;
44766;SDS011;30487;48.716;9.272;2023-07-24T00:03:05;11.75;;;5.97;;
44766;SDS011;30487;48.716;9.272;2023-07-24T00:05:31;10.60;;;5.55;;
44766;SDS011;30487;48.716;9.272;2023-07-24T00:07:56;11.30;;;5.43;;
44766;SDS011;30487;48.716;9.272;2023-07-24T00:10:22;11.10;;;6.13;;
44766;SDS011;30487;48.716;9.272;2023-07-24T00:12:47;10.30;;;5.68;;
44766;SDS011;30487;48.716;9.272;2023-07-24T00:15:13;11.32;;;5.78;;
44766;SDS011;30487;48.716;9.272;2023-07-24T00:17:38;13.73;;;6.18;;
44766;SDS011;30487;48.716;9.272;2023-07-24T00:20:05;10.32;;;5.40;;
44766;SDS011;30487;48.716;9.272;2023-07-24T00:22:31;16.27;;;6.10;;
44766;SDS011;30487;48.716;9.272;2023-07-24T00:24:57;10.13;;;5.35;;
44766;SDS011;30487;48.716;9.272;2023-07-24T00:27:22;13.50;;;5.07;;
44766;SDS011;30487;48.716;9.272;2023-07-24T00:29:48;11.63;;;5.25;;
44766;SDS011;30487;48.716;9.272;2023-07-24T00:32:13;9.32;;;5.15;;
44766;SDS011;30487;48.716;9.272;2023-07-24T00:34:39;10.90;;;5.45;;
44766;SDS011;30487;48.716;9.272;2023-07-24T00:37:04;9.45;;;4.70;;
44766;SDS011;30487;48.716;9.272;2023-07-24T00:39:30;9.88;;;5.53;;
44766;SDS011;30487;48.716;9.272;2023-07-24T00:41:56;10.90;;;5.55;;
44766;SDS011;30487;48.716;9.272;2023-07-24T00:44:21;13.40;;;5.20;;
44766;SDS011;30487;48.716;9.272;2023-07-24T00:46:47;10.32;;;5.65;;
44766;SDS011;30487;48.716;9.272;2023-07-24T00:49:13;11.70;;;5.57;;
44766;SDS011;30487;48.716;9.272;2023-07-24T00:51:39;12.65;;;5.93;;
44766;SDS011;30487;48.716;9.272;2023-07-24T00:54:05;10.65;;;5.60;;
44766;SDS011;30487;48.716;9.272;2023-07-24T00:56:32;11.82;;;5.85;;
44766;SDS011;30487;48.716;9.272;2023-07-24T00:58:59;11.63;;;5.72;;
44766;SDS011;30487;48.716;9.272;2023-07-24T01:01:25;12.48;;;6.20;;
44766;SDS011;30487;48.716;9.272;2023-07-24T01:03:52;11.43;;;5.82;;
44766;SDS011;30487;48.716;9.272;2023-07-24T01:06:18;12.05;;;5.93;;
44766;SDS011;30487;48.716;9.272;2023-07-24T01:08:43;10.95;;;6.03;;
44766;SDS011;30487;48.716;9.272;2023-07-24T01:11:15;10.60;;;5.78;;
44766;SDS011;30487;48.716;9.272;2023-07-24T01:13:56;12.18;;;5.95;;
44766;SDS011;30487;48.716;9.272;2023-07-24T01:16:30;11.07;;;6.18;;
44766;SDS011;30487;48.716;9.272;2023-07-24T01:19:01;12.63;;;6.20;;
44766;SDS011;30487;48.716;9.272;2023-07-24T01:21:39;12.57;;;5.25;;
44766;SDS011;30487;48.716;9.272;2023-07-24T01:24:29;11.43;;;5.78;;
44766;SDS011;30487;48.716;9.272;2023-07-24T01:27:23;11.38;;;5.57;;
44766;SDS011;30487;48.716;9.272;2023-07-24T01:29:48;12.95;;;6.00;;
44766;SDS011;30487;48.716;9.272;2023-07-24T01:32:14;10.23;;;5.38;;
44766;SDS011;30487;48.716;9.272;2023-07-24T01:34:39;12.13;;;5.30;;
44766;SDS011;30487;48.716;9.272;2023-07-24T01:37:05;13.15;;;6.32;;
44766;SDS011;30487;48.716;9.272;2023-07-24T01:39:31;9.95;;;5.72;;
44766;SDS011;30487;48.716;9.272;2023-07-24T01:41:57;12.40;;;6.20;;
44766;SDS011;30487;48.716;9.272;2023-07-24T01:44:24;11.88;;;5.80;;
44766;SDS011;30487;48.716;9.272;2023-07-24T01:46:49;11.43;;;6.05;;
44766;SDS011;30487;48.716;9.272;2023-07-24T01:49:15;12.40;;;6.47;;
44766;SDS011;30487;48.716;9.272;2023-07-24T01:51:40;13.50;;;6.03;;
44766;SDS011;30487;48.716;9.272;2023-07-24T01:54:06;11.45;;;5.45;;
44766;SDS011;30487;48.716;9.272;2023-07-24T01:56:31;9.80;;;5.32;;
44766;SDS011;30487;48.716;9.272;2023-07-24T01:58:58;14.50;;;5.90;;
44766;SDS011;30487;48.716;9.272;2023-07-24T02:01:24;12.60;;;5.78;;
44766;SDS011;30487;48.716;9.272;2023-07-24T02:03:49;12.05;;;6.20;;
44766;SDS011;30487;48.716;9.272;2023-07-24T02:06:15;11.68;;;6.05;;
44766;SDS011;30487;48.716;9.272;2023-07-24T02:08:40;11.75;;;5.70;;
44766;SDS011;30487;48.716;9.272;2023-07-24T02:11:12;12.68;;;5.85;;
44766;SDS011;30487;48.716;9.272;2023-07-24T02:13:37;12.20;;;6.05;;
44766;SDS011;30487;48.716;9.272;2023-07-24T02:16:03;11.10;;;5.68;;
44766;SDS011;30487;48.716;9.272;2023-07-24T02:18:29;13.35;;;5.88;;
44766;SDS011;30487;48.716;9.272;2023-07-24T02:20:54;10.52;;;5.90;;
44766;SDS011;30487;48.716;9.272;2023-07-24T02:23:20;11.43;;;6.20;;
44766;SDS011;30487;48.716;9.272;2023-07-24T02:25:45;12.70;;;6.30;;
44766;SDS011;30487;48.716;9.272;2023-07-24T02:28:11;13.70;;;5.70;;
44766;SDS011;30487;48.716;9.272;2023-07-24T02:30:39;12.35;;;5.95;;
44766;SDS011;30487;48.716;9.272;2023-07-24T02:33:05;12.95;;;5.93;;
44766;SDS011;30487;48.716;9.272;2023-07-24T02:35:30;12.15;;;6.18;;
44766;SDS011;30487;48.716;9.272;2023-07-24T02:37:56;10.65;;;5.43;;
44766;SDS011;30487;48.716;9.272;2023-07-24T02:40:21;12.63;;;6.05;;
44766;SDS011;30487;48.716;9.272;2023-07-24T02:42:47;10.63;;;5.68;;
44766;SDS011;30487;48.716;9.272;2023-07-24T02:45:13;11.68;;;6.25;;
44766;SDS011;30487;48.716;9.272;2023-07-24T02:47:38;13.25;;;6.13;;
44766;SDS011;30487;48.716;9.272;2023-07-24T02:50:04;10.88;;;6.03;;
44766;SDS011;30487;48.716;9.272;2023-07-24T02:52:30;12.35;;;6.10;;
44766;SDS011;30487;48.716;9.272;2023-07-24T02:54:55;10.20;;;5.57;;
44766;SDS011;30487;48.716;9.272;2023-07-24T02:57:21;14.45;;;6.43;;
44766;SDS011;30487;48.716;9.272;2023-07-24T02:59:46;11.32;;;5.90;;
44766;SDS011;30487;48.716;9.272;2023-07-24T03:02:12;10.55;;;5.68;;
44766;SDS011;30487;48.716;9.272;2023-07-24T03:04:37;13.38;;;5.82;;
44766;SDS011;30487;48.716;9.272;2023-07-24T03:07:03;11.68;;;5.90;;
44766;SDS011;30487;48.716;9.272;2023-07-24T03:09:28;9.52;;;5.38;;
44766;SDS011;30487;48.716;9.272;2023-07-24T03:11:54;13.50;;;6.28;;
44766;SDS011;30487;48.716;9.272;2023-07-24T03:14:19;11.25;;;5.68;;
44766;SDS011;30487;48.716;9.272;2023-07-24T03:16:45;10.43;;;5.35;;
44766;SDS011;30487;48.716;9.272;2023-07-24T03:19:10;15.20;;;6.00;;
44766;SDS011;30487;48.716;9.272;2023-07-24T03:21:36;12.85;;;6.13;;
44766;SDS011;30487;48.716;9.272;2023-07-24T03:24:02;11.30;;;5.68;;
44766;SDS011;30487;48.716;9.272;2023-07-24T03:26:27;12.00;;;6.30;;
44766;SDS011;30487;48.716;9.272;2023-07-24T03:28:53;10.93;;;5.53;;
44766;SDS011;30487;48.716;9.272;2023-07-24T03:31:19;14.15;;;6.38;;
44766;SDS011;30487;48.716;9.272;2023-07-24T03:33:45;10.68;;;5.75;;
44766;SDS011;30487;48.716;9.272;2023-07-24T03:36:10;11.77;;;6.28;;
44766;SDS011;30487;48.716;9.272;2023-07-24T03:38:36;13.40;;;5.40;;
44766;SDS011;30487;48.716;9.272;2023-07-24T03:41:01;12.63;;;6.07;;
44766;SDS011;30487;48.716;9.272;2023-07-24T03:43:27;11.57;;;5.75;;
44766;SDS011;30487;48.716;9.272;2023-07-24T03:45:52;14.05;;;6.57;;
44766;SDS011;30487;48.716;9.272;2023-07-24T03:48:18;16.05;;;7.15;;
44766;SDS011;30487;48.716;9.272;2023-07-24T03:50:43;18.50;;;8.07;;
44766;SDS011;30487;48.716;9.272;2023-07-24T03:53:09;12.48;;;5.80;;
44766;SDS011;30487;48.716;9.272;2023-07-24T03:55:35;12.77;;;6.43;;
44766;SDS011;30487;48.716;9.272;2023-07-24T03:58:00;13.85;;;6.30;;
44766;SDS011;30487;48.716;9.272;2023-07-24T04:00:26;14.65;;;6.50;;
44766;SDS011;30487;48.716;9.272;2023-07-24T04:02:51;13.27;;;6.43;;
44766;SDS011;30487;48.716;9.272;2023-07-24T04:05:17;12.23;;;6.40;;
44766;SDS011;30487;48.716;9.272;2023-07-24T04:07:43;12.20;;;5.90;;
44766;SDS011;30487;48.716;9.272;2023-07-24T04:10:08;12.82;;;6.40;;
44766;SDS011;30487;48.716;9.272;2023-07-24T04:12:34;15.05;;;6.68;;
44766;SDS011;30487;48.716;9.272;2023-07-24T04:14:59;13.93;;;6.55;;
44766;SDS011;30487;48.716;9.272;2023-07-24T04:17:25;13.82;;;6.75;;
44766;SDS011;30487;48.716;9.272;2023-07-24T04:19:50;10.50;;;5.90;;
44766;SDS011;30487;48.716;9.272;2023-07-24T04:22:16;12.15;;;5.50;;
44766;SDS011;30487;48.716;9.272;2023-07-24T04:24:41;12.80;;;6.18;;
44766;SDS011;30487;48.716;9.272;2023-07-24T04:27:07;15.48;;;6.63;;
44766;SDS011;30487;48.716;9.272;2023-07-24T04:29:32;14.18;;;6.45;;
44766;SDS011;30487;48.716;9.272;2023-07-24T04:31:58;11.35;;;6.00;;
44766;SDS011;30487;48.716;9.272;2023-07-24T04:34:23;11.45;;;5.85;;
44766;SDS011;30487;48.716;9.272;2023-07-24T04:36:49;12.20;;;5.95;;
44766;SDS011;30487;48.716;9.272;2023-07-24T04:39:14;11.77;;;6.18;;
44766;SDS011;30487;48.716;9.272;2023-07-24T04:41:40;15.25;;;6.60;;
44766;SDS011;30487;48.716;9.272;2023-07-24T04:44:05;16.23;;;6.20;;
44766;SDS011;30487;48.716;9.272;2023-07-24T04:46:31;12.00;;;5.95;;
44766;SDS011;30487;48.716;9.272;2023-07-24T04:48:57;13.30;;;6.07;;
44766;SDS011;30487;48.716;9.272;2023-07-24T04:51:22;11.38;;;5.95;;
44766;SDS011;30487;48.716;9.272;2023-07-24T04:53:48;14.60;;;6.53;;
44766;SDS011;30487;48.716;9.272;2023-07-24T04:56:13;13.65;;;6.70;;
44766;SDS011;30487;48.716;9.272;2023-07-24T04:58:39;12.80;;;6.25;;
44766;SDS011;30487;48.716;9.272;2023-07-24T05:01:04;11.40;;;6.05;;
44766;SDS011;30487;48.716;9.272;2023-07-24T05:03:30;12.00;;;5.85;;
44766;SDS011;30487;48.716;9.272;2023-07-24T05:05:56;12.60;;;6.85;;
44766;SDS011;30487;48.716;9.272;2023-07-24T05:08:22;11.27;;;6.18;;
44766;SDS011;30487;48.716;9.272;2023-07-24T05:10:58;12.50;;;6.03;;
44766;SDS011;30487;48.716;9.272;2023-07-24T05:13:25;11.52;;;6.30;;
44766;SDS011;30487;48.716;9.272;2023-07-24T05:15:51;13.90;;;6.38;;
44766;SDS011;30487;48.716;9.272;2023-07-24T05:18:16;11.30;;;6.15;;
44766;SDS011;30487;48.716;9.272;2023-07-24T05:20:43;10.63;;;6.00;;
44766;SDS011;30487;48.716;9.272;2023-07-24T05:23:11;11.65;;;5.95;;
44766;SDS011;30487;48.716;9.272;2023-07-24T05:25:36;12.93;;;6.15;;
44766;SDS011;30487;48.716;9.272;2023-07-24T05:28:02;12.38;;;6.55;;
44766;SDS011;30487;48.716;9.272;2023-07-24T05:30:28;13.63;;;5.90;;
44766;SDS011;30487;48.716;9.272;2023-07-24T05:32:54;13.30;;;6.00;;
44766;SDS011;30487;48.716;9.272;2023-07-24T05:35:19;11.68;;;5.80;;
44766;SDS011;30487;48.716;9.272;2023-07-24T05:37:45;12.07;;;5.97;;
44766;SDS011;30487;48.716;9.272;2023-07-24T05:40:11;12.35;;;6.45;;
44766;SDS011;30487;48.716;9.272;2023-07-24T05:42:36;11.48;;;6.18;;
44766;SDS011;30487;48.716;9.272;2023-07-24T05:45:06;13.75;;;6.35;;
44766;SDS011;30487;48.716;9.272;2023-07-24T05:47:33;13.77;;;6.03;;
44766;SDS011;30487;48.716;9.272;2023-07-24T05:49:59;14.25;;;6.88;;
44766;SDS011;30487;48.716;9.272;2023-07-24T05:52:24;13.80;;;5.85;;
44766;SDS011;30487;48.716;9.272;2023-07-24T05:54:50;13.00;;;6.57;;
44766;SDS011;30487;48.716;9.272;2023-07-24T05:57:15;12.68;;;6.07;;
44766;SDS011;30487;48.716;9.272;2023-07-24T05:59:41;15.20;;;6.55;;
44766;SDS011;30487;48.716;9.272;2023-07-24T06:02:08;15.15;;;6.75;;
44766;SDS011;30487;48.716;9.272;2023-07-24T06:04:34;13.68;;;6.85;;
44766;SDS011;30487;48.716;9.272;2023-07-24T06:06:59;12.93;;;6.22;;
44766;SDS011;30487;48.716;9.272;2023-07-24T06:09:25;12.45;;;6.32;;
44766;SDS011;30487;48.716;9.272;2023-07-24T06:11:51;11.25;;;6.07;;
44766;SDS011;30487;48.716;9.272;2023-07-24T06:14:16;16.35;;;6.78;;
44766;SDS011;30487;48.716;9.272;2023-07-24T06:16:42;11.55;;;6.25;;
44766;SDS011;30487;48.716;9.272;2023-07-24T06:19:07;14.95;;;6.45;;
44766;SDS011;30487;48.716;9.272;2023-07-24T06:21:33;14.15;;;6.10;;
44766;SDS011;30487;48.716;9.272;2023-07-24T06:23:58;13.07;;;7.10;;
44766;SDS011;30487;48.716;9.272;2023-07-24T06:26:24;15.82;;;6.57;;
44766;SDS011;30487;48.716;9.272;2023-07-24T06:28:49;11.63;;;5.88;;
44766;SDS011;30487;48.716;9.272;2023-07-24T06:31:15;13.50;;;6.63;;
44766;SDS011;30487;48.716;9.272;2023-07-24T06:33:40;12.98;;;6.45;;
44766;SDS011;30487;48.716;9.272;2023-07-24T06:36:09;12.73;;;6.03;;
44766;SDS011;30487;48.716;9.272;2023-07-24T06:38:35;13.65;;;6.60;;
44766;SDS011;30487;48.716;9.272;2023-07-24T06:41:01;13.00;;;6.13;;
44766;SDS011;30487;48.716;9.272;2023-07-24T06:43:27;12.57;;;6.20;;
44766;SDS011;30487;48.716;9.272;2023-07-24T06:45:53;16.35;;;6.72;;
44766;SDS011;30487;48.716;9.272;2023-07-24T06:48:19;12.27;;;6.68;;
44766;SDS011;30487;48.716;9.272;2023-07-24T06:50:44;13.90;;;6.40;;
44766;SDS011;30487;48.716;9.272;2023-07-24T06:53:10;13.20;;;6.40;;
44766;SDS011;30487;48.716;9.272;2023-07-24T06:55:36;11.82;;;6.50;;
44766;SDS011;30487;48.716;9.272;2023-07-24T06:58:01;15.23;;;6.68;;
44766;SDS011;30487;48.716;9.272;2023-07-24T07:00:27;10.45;;;5.80;;
44766;SDS011;30487;48.716;9.272;2023-07-24T07:02:52;12.55;;;6.38;;
44766;SDS011;30487;48.716;9.272;2023-07-24T07:05:18;12.43;;;6.38;;
44766;SDS011;30487;48.716;9.272;2023-07-24T07:07:43;14.00;;;6.43;;
44766;SDS011;30487;48.716;9.272;2023-07-24T07:10:09;13.15;;;6.53;;
44766;SDS011;30487;48.716;9.272;2023-07-24T07:12:35;13.35;;;6.32;;
44766;SDS011;30487;48.716;9.272;2023-07-24T07:15:00;12.18;;;6.18;;
44766;SDS011;30487;48.716;9.272;2023-07-24T07:17:26;12.57;;;6.20;;
44766;SDS011;30487;48.716;9.272;2023-07-24T07:19:52;12.93;;;6.13;;
44766;SDS011;30487;48.716;9.272;2023-07-24T07:22:17;15.25;;;6.30;;
44766;SDS011;30487;48.716;9.272;2023-07-24T07:24:43;14.80;;;5.97;;
44766;SDS011;30487;48.716;9.272;2023-07-24T07:27:09;13.18;;;6.60;;
44766;SDS011;30487;48.716;9.272;2023-07-24T07:29:34;13.88;;;6.43;;
44766;SDS011;30487;48.716;9.272;2023-07-24T07:32:00;12.00;;;5.82;;
44766;SDS011;30487;48.716;9.272;2023-07-24T07:34:25;12.70;;;6.25;;
44766;SDS011;30487;48.716;9.272;2023-07-24T07:36:51;11.80;;;6.10;;
44766;SDS011;30487;48.716;9.272;2023-07-24T07:39:16;12.95;;;6.78;;
44766;SDS011;30487;48.716;9.272;2023-07-24T07:41:42;11.07;;;5.97;;
44766;SDS011;30487;48.716;9.272;2023-07-24T07:44:08;14.00;;;6.78;;
44766;SDS011;30487;48.716;9.272;2023-07-24T07:46:33;14.77;;;6.47;;
44766;SDS011;30487;48.716;9.272;2023-07-24T07:48:59;11.85;;;6.25;;
44766;SDS011;30487;48.716;9.272;2023-07-24T07:51:24;15.02;;;6.30;;
44766;SDS011;30487;48.716;9.272;2023-07-24T07:53:51;13.65;;;6.15;;
44766;SDS011;30487;48.716;9.272;2023-07-24T07:56:16;12.77;;;6.75;;
44766;SDS011;30487;48.716;9.272;2023-07-24T07:58:42;13.65;;;6.05;;
44766;SDS011;30487;48.716;9.272;2023-07-24T08:01:07;17.08;;;5.97;;
44766;SDS011;30487;48.716;9.272;2023-07-24T08:03:33;12.90;;;6.60;;
44766;SDS011;30487;48.716;9.272;2023-07-24T08:05:59;12.40;;;6.13;;
44766;SDS011;30487;48.716;9.272;2023-07-24T08:08:25;13.40;;;6.38;;
44766;SDS011;30487;48.716;9.272;2023-07-24T08:10:51;10.65;;;5.97;;
44766;SDS011;30487;48.716;9.272;2023-07-24T08:13:16;12.90;;;6.35;;
44766;SDS011;30487;48.716;9.272;2023-07-24T08:15:42;16.45;;;5.55;;
44766;SDS011;30487;48.716;9.272;2023-07-24T08:18:08;11.05;;;6.22;;
44766;SDS011;30487;48.716;9.272;2023-07-24T08:20:36;11.23;;;5.78;;
44766;SDS011;30487;48.716;9.272;2023-07-24T08:23:03;13.20;;;6.00;;
44766;SDS011;30487;48.716;9.272;2023-07-24T08:25:29;12.32;;;5.80;;
44766;SDS011;30487;48.716;9.272;2023-07-24T08:27:54;15.32;;;6.00;;
44766;SDS011;30487;48.716;9.272;2023-07-24T08:30:20;9.57;;;5.82;;
44766;SDS011;30487;48.716;9.272;2023-07-24T08:32:46;11.13;;;5.93;;
44766;SDS011;30487;48.716;9.272;2023-07-24T08:35:11;11.88;;;5.90;;
44766;SDS011;30487;48.716;9.272;2023-07-24T08:37:37;13.07;;;5.50;;
44766;SDS011;30487;48.716;9.272;2023-07-24T08:40:03;11.63;;;5.75;;
44766;SDS011;30487;48.716;9.272;2023-07-24T08:42:29;12.43;;;6.00;;
44766;SDS011;30487;48.716;9.272;2023-07-24T08:44:56;12.35;;;5.55;;
44766;SDS011;30487;48.716;9.272;2023-07-24T08:47:23;12.30;;;5.32;;
44766;SDS011;30487;48.716;9.272;2023-07-24T08:49:49;10.82;;;5.75;;
44766;SDS011;30487;48.716;9.272;2023-07-24T08:52:17;14.48;;;6.18;;
44766;SDS011;30487;48.716;9.272;2023-07-24T08:54:42;10.40;;;5.28;;
44766;SDS011;30487;48.716;9.272;2023-07-24T08:57:09;11.90;;;5.43;;
44766;SDS011;30487;48.716;9.272;2023-07-24T08:59:36;11.07;;;5.43;;
44766;SDS011;30487;48.716;9.272;2023-07-24T09:02:01;12.27;;;6.30;;
44766;SDS011;30487;48.716;9.272;2023-07-24T09:04:27;10.88;;;5.47;;
44766;SDS011;30487;48.716;9.272;2023-07-24T09:06:53;11.25;;;5.72;;
44766;SDS011;30487;48.716;9.272;2023-07-24T09:09:22;12.57;;;5.90;;
44766;SDS011;30487;48.716;9.272;2023-07-24T09:11:51;11.88;;;5.55;;
44766;SDS011;30487;48.716;9.272;2023-07-24T09:16:48;13.05;;;5.45;;
44766;SDS011;30487;48.716;9.272;2023-07-24T09:19:17;11.57;;;5.25;;
44766;SDS011;30487;48.716;9.272;2023-07-24T09:21:43;8.95;;;4.93;;
44766;SDS011;30487;48.716;9.272;2023-07-24T09:24:13;11.63;;;4.95;;
44766;SDS011;30487;48.716;9.272;2023-07-24T09:26:49;10.95;;;4.50;;
44766;SDS011;30487;48.716;9.272;2023-07-24T09:29:18;10.07;;;4.85;;
44766;SDS011;30487;48.716;9.272;2023-07-24T09:31:44;10.60;;;4.60;;
44766;SDS011;30487;48.716;9.272;2023-07-24T09:34:16;11.35;;;4.82;;
44766;SDS011;30487;48.716;9.272;2023-07-24T09:36:43;8.53;;;4.70;;
44766;SDS011;30487;48.716;9.272;2023-07-24T09:39:09;8.38;;;4.32;;
44766;SDS011;30487;48.716;9.272;2023-07-24T09:41:38;12.85;;;4.82;;
44766;SDS011;30487;48.716;9.272;2023-07-24T09:44:04;9.57;;;5.15;;
44766;SDS011;30487;48.716;9.272;2023-07-24T09:46:30;9.98;;;4.40;;
44766;SDS011;30487;48.716;9.272;2023-07-24T09:48:57;6.47;;;4.30;;
44766;SDS011;30487;48.716;9.272;2023-07-24T09:51:23;9.50;;;4.10;;
44766;SDS011;30487;48.716;9.272;2023-07-24T09:54:04;10.18;;;4.32;;
44766;SDS011;30487;48.716;9.272;2023-07-24T09:56:35;7.85;;;4.28;;
44766;SDS011;30487;48.716;9.272;2023-07-24T09:59:02;8.55;;;4.50;;
44766;SDS011;30487;48.716;9.272;2023-07-24T10:01:28;8.98;;;4.65;;
44766;SDS011;30487;48.716;9.272;2023-07-24T10:03:56;8.00;;;4.20;;
44766;SDS011;30487;48.716;9.272;2023-07-24T10:06:22;7.97;;;4.10;;
44766;SDS011;30487;48.716;9.272;2023-07-24T10:08:49;8.07;;;4.13;;
44766;SDS011;30487;48.716;9.272;2023-07-24T10:11:15;7.85;;;4.38;;
44766;SDS011;30487;48.716;9.272;2023-07-24T10:13:41;10.07;;;4.38;;
44766;SDS011;30487;48.716;9.272;2023-07-24T10:16:08;9.27;;;4.57;;
44766;SDS011;30487;48.716;9.272;2023-07-24T10:18:34;7.90;;;4.25;;
44766;SDS011;30487;48.716;9.272;2023-07-24T10:21:07;9.77;;;4.30;;
44766;SDS011;30487;48.716;9.272;2023-07-24T10:23:34;7.00;;;3.95;;
44766;SDS011;30487;48.716;9.272;2023-07-24T10:26:07;10.23;;;4.57;;
44766;SDS011;30487;48.716;9.272;2023-07-24T10:28:34;7.28;;;4.28;;
44766;SDS011;30487;48.716;9.272;2023-07-24T10:31:06;8.65;;;4.22;;
44766;SDS011;30487;48.716;9.272;2023-07-24T10:33:46;8.30;;;4.53;;
44766;SDS011;30487;48.716;9.272;2023-07-24T10:36:12;10.15;;;4.07;;
44766;SDS011;30487;48.716;9.272;2023-07-24T10:38:45;7.72;;;4.25;;
44766;SDS011;30487;48.716;9.272;2023-07-24T10:41:12;9.68;;;4.75;;
44766;SDS011;30487;48.716;9.272;2023-07-24T10:46:09;10.00;;;4.88;;
44766;SDS011;30487;48.716;9.272;2023-07-24T10:48:35;10.70;;;5.53;;
44766;SDS011;30487;48.716;9.272;2023-07-24T10:51:05;10.68;;;4.97;;
44766;SDS011;30487;48.716;9.272;2023-07-24T10:53:34;11.73;;;5.78;;
44766;SDS011;30487;48.716;9.272;2023-07-24T10:56:00;10.35;;;5.00;;
44766;SDS011;30487;48.716;9.272;2023-07-24T10:58:26;16.00;;;5.32;;
44766;SDS011;30487;48.716;9.272;2023-07-24T11:00:52;10.30;;;5.22;;
44766;SDS011;30487;48.716;9.272;2023-07-24T11:03:17;8.85;;;4.70;;
44766;SDS011;30487;48.716;9.272;2023-07-24T11:05:45;11.35;;;5.10;;
44766;SDS011;30487;48.716;9.272;2023-07-24T11:08:12;12.35;;;5.65;;
44766;SDS011;30487;48.716;9.272;2023-07-24T11:10:51;11.70;;;5.10;;
44766;SDS011;30487;48.716;9.272;2023-07-24T11:13:21;10.45;;;5.28;;
44766;SDS011;30487;48.716;9.272;2023-07-24T11:15:48;12.27;;;5.45;;
44766;SDS011;30487;48.716;9.272;2023-07-24T11:18:15;13.70;;;5.28;;
44766;SDS011;30487;48.716;9.272;2023-07-24T11:20:45;12.63;;;4.70;;
44766;SDS011;30487;48.716;9.272;2023-07-24T11:23:13;10.82;;;5.63;;
44766;SDS011;30487;48.716;9.272;2023-07-24T11:25:39;12.30;;;5.35;;
44766;SDS011;30487;48.716;9.272;2023-07-24T11:28:06;10.95;;;5.18;;
44766;SDS011;30487;48.716;9.272;2023-07-24T11:30:32;12.57;;;5.30;;
44766;SDS011;30487;48.716;9.272;2023-07-24T11:33:02;12.75;;;5.13;;
44766;SDS011;30487;48.716;9.272;2023-07-24T11:35:28;8.68;;;4.68;;
44766;SDS011;30487;48.716;9.272;2023-07-24T11:37:54;11.23;;;5.15;;
44766;SDS011;30487;48.716;9.272;2023-07-24T11:40:20;9.68;;;5.05;;
44766;SDS011;30487;48.716;9.272;2023-07-24T11:42:48;8.95;;;4.70;;
44766;SDS011;30487;48.716;9.272;2023-07-24T11:45:14;8.55;;;4.43;;
44766;SDS011;30487;48.716;9.272;2023-07-24T11:47:47;9.73;;;4.82;;
44766;SDS011;30487;48.716;9.272;2023-07-24T11:50:14;9.57;;;4.75;;
44766;SDS011;30487;48.716;9.272;2023-07-24T11:52:41;8.63;;;4.88;;
44766;SDS011;30487;48.716;9.272;2023-07-24T11:55:11;9.63;;;5.07;;
44766;SDS011;30487;48.716;9.272;2023-07-24T11:57:38;11.77;;;4.60;;
44766;SDS011;30487;48.716;9.272;2023-07-24T12:00:04;11.65;;;5.18;;
44766;SDS011;30487;48.716;9.272;2023-07-24T12:02:32;9.43;;;4.85;;
44766;SDS011;30487;48.716;9.272;2023-07-24T12:05:00;9.40;;;5.05;;
44766;SDS011;30487;48.716;9.272;2023-07-24T12:07:31;11.98;;;5.45;;
44766;SDS011;30487;48.716;9.272;2023-07-24T12:09:59;11.15;;;5.30;;
44766;SDS011;30487;48.716;9.272;2023-07-24T12:12:25;9.85;;;4.68;;
44766;SDS011;30487;48.716;9.272;2023-07-24T12:15:01;10.50;;;4.57;;
44766;SDS011;30487;48.716;9.272;2023-07-24T12:17:26;8.70;;;4.93;;
44766;SDS011;30487;48.716;9.272;2023-07-24T12:19:52;10.68;;;4.93;;
44766;SDS011;30487;48.716;9.272;2023-07-24T12:22:17;9.55;;;5.30;;
44766;SDS011;30487;48.716;9.272;2023-07-24T12:24:43;10.60;;;4.90;;
44766;SDS011;30487;48.716;9.272;2023-07-24T12:27:09;9.63;;;4.75;;
44766;SDS011;30487;48.716;9.272;2023-07-24T12:29:35;7.78;;;4.68;;
44766;SDS011;30487;48.716;9.272;2023-07-24T12:32:00;9.43;;;4.70;;
44766;SDS011;30487;48.716;9.272;2023-07-24T12:34:26;9.40;;;4.63;;
44766;SDS011;30487;48.716;9.272;2023-07-24T12:36:51;9.73;;;4.57;;
44766;SDS011;30487;48.716;9.272;2023-07-24T12:39:18;9.07;;;4.35;;
44766;SDS011;30487;48.716;9.272;2023-07-24T12:41:44;8.77;;;4.60;;
44766;SDS011;30487;48.716;9.272;2023-07-24T12:44:09;7.95;;;4.55;;
44766;SDS011;30487;48.716;9.272;2023-07-24T12:46:35;7.75;;;4.60;;
44766;SDS011;30487;48.716;9.272;2023-07-24T12:49:00;6.97;;;4.20;;
44766;SDS011;30487;48.716;9.272;2023-07-24T12:51:26;7.57;;;4.15;;
44766;SDS011;30487;48.716;9.272;2023-07-24T12:53:52;7.38;;;4.00;;
44766;SDS011;30487;48.716;9.272;2023-07-24T12:56:17;8.70;;;4.53;;
44766;SDS011;30487;48.716;9.272;2023-07-24T12:58:43;8.50;;;4.75;;
44766;SDS011;30487;48.716;9.272;2023-07-24T13:01:09;10.00;;;4.65;;
44766;SDS011;30487;48.716;9.272;2023-07-24T13:03:34;8.85;;;4.55;;
44766;SDS011;30487;48.716;9.272;2023-07-24T13:06:00;8.18;;;4.32;;
44766;SDS011;30487;48.716;9.272;2023-07-24T13:08:25;9.85;;;4.43;;
44766;SDS011;30487;48.716;9.272;2023-07-24T13:10:51;8.35;;;4.15;;
44766;SDS011;30487;48.716;9.272;2023-07-24T13:13:17;7.75;;;3.88;;
44766;SDS011;30487;48.716;9.272;2023-07-24T13:15:42;8.50;;;4.15;;
44766;SDS011;30487;48.716;9.272;2023-07-24T13:18:08;8.43;;;3.72;;
44766;SDS011;30487;48.716;9.272;2023-07-24T13:20:34;9.57;;;4.20;;
44766;SDS011;30487;48.716;9.272;2023-07-24T13:22:59;6.43;;;4.15;;
44766;SDS011;30487;48.716;9.272;2023-07-24T13:25:25;7.15;;;4.00;;
44766;SDS011;30487;48.716;9.272;2023-07-24T13:27:50;7.70;;;4.00;;
44766;SDS011;30487;48.716;9.272;2023-07-24T13:30:17;9.23;;;4.05;;
44766;SDS011;30487;48.716;9.272;2023-07-24T13:32:43;8.15;;;4.15;;
44766;SDS011;30487;48.716;9.272;2023-07-24T13:35:08;7.63;;;3.95;;
44766;SDS011;30487;48.716;9.272;2023-07-24T13:37:34;7.82;;;3.78;;
44766;SDS011;30487;48.716;9.272;2023-07-24T13:40:00;7.65;;;3.80;;
44766;SDS011;30487;48.716;9.272;2023-07-24T13:42:25;7.78;;;3.92;;
44766;SDS011;30487;48.716;9.272;2023-07-24T13:44:51;6.00;;;3.70;;
44766;SDS011;30487;48.716;9.272;2023-07-24T13:47:16;5.95;;;3.38;;
44766;SDS011;30487;48.716;9.272;2023-07-24T13:49:42;6.63;;;3.53;;
44766;SDS011;30487;48.716;9.272;2023-07-24T13:52:07;6.78;;;3.28;;
44766;SDS011;30487;48.716;9.272;2023-07-24T13:54:33;5.90;;;3.55;;
44766;SDS011;30487;48.716;9.272;2023-07-24T13:56:59;7.20;;;3.63;;
44766;SDS011;30487;48.716;9.272;2023-07-24T13:59:24;6.13;;;3.75;;
44766;SDS011;30487;48.716;9.272;2023-07-24T14:01:50;6.38;;;3.65;;
44766;SDS011;30487;48.716;9.272;2023-07-24T14:04:15;6.97;;;3.63;;
44766;SDS011;30487;48.716;9.272;2023-07-24T14:06:41;9.23;;;3.38;;
44766;SDS011;30487;48.716;9.272;2023-07-24T14:09:06;5.30;;;3.00;;
44766;SDS011;30487;48.716;9.272;2023-07-24T14:11:32;6.13;;;3.42;;
44766;SDS011;30487;48.716;9.272;2023-07-24T14:13:57;7.28;;;3.15;;
44766;SDS011;30487;48.716;9.272;2023-07-24T14:16:23;5.88;;;3.33;;
44766;SDS011;30487;48.716;9.272;2023-07-24T14:18:48;7.80;;;3.35;;
44766;SDS011;30487;48.716;9.272;2023-07-24T14:21:14;7.03;;;3.42;;
44766;SDS011;30487;48.716;9.272;2023-07-24T14:23:39;7.63;;;3.40;;
44766;SDS011;30487;48.716;9.272;2023-07-24T14:26:05;7.28;;;3.53;;
44766;SDS011;30487;48.716;9.272;2023-07-24T14:28:30;6.18;;;3.28;;
44766;SDS011;30487;48.716;9.272;2023-07-24T14:30:57;10.30;;;3.45;;
44766;SDS011;30487;48.716;9.272;2023-07-24T14:33:22;5.32;;;2.90;;
44766;SDS011;30487;48.716;9.272;2023-07-24T14:35:48;7.25;;;3.50;;
44766;SDS011;30487;48.716;9.272;2023-07-24T14:38:14;5.55;;;2.72;;